Terminal Aerodrome Forecast
Issued by NWS Mt. Holly, NJ

Home | Current Version | Previous Version | Text Only | Print | Product List | Glossary On
Versions: 1 2 3 4 5 6 7 8 9 10 11 12 13
936
FTUS41 KPHI 251727
TAFILG
TAF
KILG 251727Z 2518/2618 06020G30KT 3SM -RA BR OVC006
     FM251900 06020G30KT 1SM RA BR OVC004
     FM260200 05015G23KT 3SM BR BKN008 OVC010
     FM260500 04012KT 3SM BR OVC005
     FM260800 02008KT 1SM BR OVC005
     FM261600 36005KT 3SM BR OVC012=

USA.gov is the U.S. government's official web portal to all federal, state and local government web resources and services.